Time;durP1;ratioP1;P1;durP2;ratioP2;P2;SDS_P1;SDS_P2;PMS_P1;PMS_P2;Temp;Humidity;BMP_temperature;BMP_pressure;BME280_temperature;BME280_humidity;BME280_pressure;Samples;Min_cycle;Max_cycle;Signal;HPM_P1;HPM_P2
2023/09/17 00:02:06;;;;;;;11.15;9.80;;;;;;;;;;5081545;28;20126;-58
2023/09/17 00:04:33;;;;;;;10.65;9.65;;;;;;;;;;5082567;28;20080;-58
2023/09/17 00:07:00;;;;;;;16.15;10.15;;;;;;;;;;5082919;28;20049;-57
2023/09/17 00:09:27;;;;;;;10.68;9.57;;;;;;;;;;5082652;28;20049;-56
2023/09/17 00:11:53;;;;;;;10.73;9.60;;;;;;;;;;5081445;28;20132;-56
2023/09/17 00:14:20;;;;;;;12.55;9.85;;;;;;;;;;5081127;28;20048;-56
2023/09/17 00:16:46;;;;;;;11.00;9.90;;;;;;;;;;5083209;28;20514;-58
2023/09/17 00:19:13;;;;;;;14.88;9.98;;;;;;;;;;5081543;28;20099;-58
2023/09/17 00:21:40;;;;;;;11.55;9.85;;;;;;;;;;5080507;28;20102;-57
2023/09/17 00:24:07;;;;;;;13.30;10.23;;;;;;;;;;5063590;28;20052;-57
2023/09/17 00:26:33;;;;;;;12.07;10.43;;;;;;;;;;5082264;28;20055;-60
2023/09/17 00:29:01;;;;;;;12.32;10.20;;;;;;;;;;5079633;28;20052;-58
2023/09/17 00:31:27;;;;;;;12.07;10.65;;;;;;;;;;5082129;28;20049;-61
2023/09/17 00:33:54;;;;;;;11.80;10.60;;;;;;;;;;5080541;28;20083;-57
2023/09/17 00:36:21;;;;;;;12.23;10.38;;;;;;;;;;5080700;28;20586;-58
2023/09/17 00:38:47;;;;;;;13.80;9.90;;;;;;;;;;5075010;28;20060;-57
2023/09/17 00:41:14;;;;;;;12.00;10.10;;;;;;;;;;5082102;28;20044;-55
2023/09/17 00:43:40;;;;;;;11.18;10.07;;;;;;;;;;5082269;28;20733;-57
2023/09/17 00:46:07;;;;;;;12.95;9.95;;;;;;;;;;5083192;28;20049;-58
2023/09/17 00:48:34;;;;;;;12.55;10.65;;;;;;;;;;5085828;28;20048;-57
2023/09/17 00:51:02;;;;;;;14.80;10.02;;;;;;;;;;5085413;28;20057;-57
2023/09/17 00:53:29;;;;;;;11.40;9.90;;;;;;;;;;5083803;28;20056;-57
2023/09/17 00:55:56;;;;;;;12.25;9.50;;;;;;;;;;5084906;28;20067;-57
2023/09/17 00:58:22;;;;;;;12.10;9.98;;;;;;;;;;5085142;28;20049;-56
2023/09/17 01:00:49;;;;;;;11.25;10.15;;;;;;;;;;5085096;28;20057;-57
2023/09/17 01:03:16;;;;;;;16.50;10.30;;;;;;;;;;5081750;28;20115;-57
2023/09/17 01:05:43;;;;;;;11.68;10.48;;;;;;;;;;5074176;28;20056;-57
2023/09/17 01:08:10;;;;;;;13.23;10.35;;;;;;;;;;5082442;28;20366;-57
2023/09/17 01:10:39;;;;;;;10.93;9.80;;;;;;;;;;5065408;28;20053;-57
2023/09/17 01:13:06;;;;;;;10.43;9.35;;;;;;;;;;5084226;28;20136;-56
2023/09/17 01:15:34;;;;;;;10.80;9.68;;;;;;;;;;5085322;28;20510;-59
2023/09/17 01:18:05;;;;;;;11.05;9.85;;;;;;;;;;5084267;28;20056;-58
2023/09/17 01:20:35;;;;;;;14.13;11.00;;;;;;;;;;5086344;28;20053;-56
2023/09/17 01:23:06;;;;;;;11.18;10.02;;;;;;;;;;5083426;28;20129;-57
2023/09/17 01:26:09;;;;;;;12.18;10.20;;;;;;;;;;5085303;28;20056;-56
2023/09/17 01:28:35;;;;;;;11.68;10.25;;;;;;;;;;5003007;28;20076;-56
2023/09/17 01:31:03;;;;;;;14.63;10.15;;;;;;;;;;5001149;28;20085;-59
2023/09/17 01:33:29;;;;;;;15.57;10.40;;;;;;;;;;5002277;28;20513;-58
2023/09/17 01:36:06;;;;;;;14.75;9.52;;;;;;;;;;5001925;28;20054;-57
2023/09/17 01:38:35;;;;;;;11.32;10.20;;;;;;;;;;5001302;28;20476;-59
2023/09/17 01:41:03;;;;;;;11.43;9.98;;;;;;;;;;5001929;28;20050;-57
2023/09/17 01:43:30;;;;;;;12.05;10.07;;;;;;;;;;4985461;28;20058;-55
2023/09/17 01:45:57;;;;;;;11.63;10.43;;;;;;;;;;5001628;28;20090;-55
2023/09/17 01:48:25;;;;;;;12.48;10.68;;;;;;;;;;5001137;28;20173;-56
2023/09/17 01:50:52;;;;;;;11.13;10.02;;;;;;;;;;5001946;28;20064;-58
2023/09/17 01:53:19;;;;;;;13.70;10.27;;;;;;;;;;5000171;28;20483;-56
2023/09/17 01:55:49;;;;;;;12.52;10.35;;;;;;;;;;5001615;28;20094;-58
2023/09/17 01:58:17;;;;;;;12.80;10.85;;;;;;;;;;5000725;28;20094;-58
2023/09/17 02:00:43;;;;;;;14.68;10.85;;;;;;;;;;5001748;28;20078;-59
2023/09/17 02:03:10;;;;;;;13.40;11.00;;;;;;;;;;5045667;28;20176;-58
2023/09/17 02:05:36;;;;;;;12.02;10.82;;;;;;;;;;5071953;28;20596;-58
2023/09/17 02:08:03;;;;;;;11.93;10.73;;;;;;;;;;5084158;28;20511;-57
2023/09/17 02:10:30;;;;;;;13.18;10.45;;;;;;;;;;5078118;28;20056;-55
2023/09/17 02:12:57;;;;;;;13.68;11.48;;;;;;;;;;5064998;28;20614;-58
2023/09/17 02:15:23;;;;;;;11.50;10.40;;;;;;;;;;5083728;28;20063;-57
2023/09/17 02:17:51;;;;;;;12.10;10.00;;;;;;;;;;5083687;28;20064;-58
2023/09/17 02:20:17;;;;;;;12.05;10.48;;;;;;;;;;5082933;28;20055;-57
2023/09/17 02:22:44;;;;;;;12.60;10.70;;;;;;;;;;5083615;28;20056;-57
2023/09/17 02:25:10;;;;;;;12.73;10.32;;;;;;;;;;5084157;28;20418;-59
2023/09/17 02:27:38;;;;;;;13.80;11.40;;;;;;;;;;5082991;28;20055;-55
2023/09/17 02:30:05;;;;;;;13.90;11.55;;;;;;;;;;5078562;28;20052;-56
2023/09/17 02:32:32;;;;;;;13.23;11.15;;;;;;;;;;5085258;28;20451;-57
2023/09/17 02:35:00;;;;;;;12.65;10.95;;;;;;;;;;5082516;28;20057;-56
2023/09/17 02:37:26;;;;;;;13.30;11.93;;;;;;;;;;5082424;28;20204;-57
2023/09/17 02:39:53;;;;;;;13.02;10.65;;;;;;;;;;5082940;28;20044;-58
2023/09/17 02:42:19;;;;;;;11.98;10.75;;;;;;;;;;5082130;28;20053;-58
2023/09/17 02:44:46;;;;;;;12.15;10.82;;;;;;;;;;5066582;28;20060;-57
2023/09/17 02:47:12;;;;;;;11.98;10.45;;;;;;;;;;5083614;28;20053;-56
2023/09/17 02:49:39;;;;;;;14.38;11.73;;;;;;;;;;5084467;28;20471;-58
2023/09/17 02:52:06;;;;;;;13.23;10.40;;;;;;;;;;5079701;28;20068;-55
2023/09/17 02:54:33;;;;;;;13.23;10.70;;;;;;;;;;5084614;28;20048;-57
2023/09/17 02:57:01;;;;;;;13.27;11.15;;;;;;;;;;5079770;28;20542;-58
2023/09/17 02:59:27;;;;;;;12.40;11.05;;;;;;;;;;5084631;28;20522;-58
2023/09/17 03:01:54;;;;;;;14.07;11.75;;;;;;;;;;5082515;28;20049;-55
2023/09/17 03:04:21;;;;;;;12.40;11.13;;;;;;;;;;5083537;28;20056;-58
2023/09/17 03:06:47;;;;;;;11.82;10.43;;;;;;;;;;5080199;28;20564;-58
2023/09/17 03:09:14;;;;;;;11.82;10.63;;;;;;;;;;5082963;28;20135;-57
2023/09/17 03:11:42;;;;;;;12.82;11.05;;;;;;;;;;5082664;28;20659;-56
2023/09/17 03:14:08;;;;;;;15.27;11.45;;;;;;;;;;5083082;28;20507;-55
2023/09/17 03:16:35;;;;;;;12.43;10.88;;;;;;;;;;5082633;28;20446;-57
2023/09/17 03:19:02;;;;;;;13.80;11.02;;;;;;;;;;5082592;28;20664;-57
2023/09/17 03:21:29;;;;;;;13.73;10.63;;;;;;;;;;5082773;28;20527;-58
2023/09/17 03:23:55;;;;;;;11.68;10.45;;;;;;;;;;5082807;28;20094;-57
2023/09/17 03:26:22;;;;;;;11.30;10.18;;;;;;;;;;5081206;28;20049;-56
2023/09/17 03:28:49;;;;;;;12.38;11.07;;;;;;;;;;5049713;28;20059;-53
2023/09/17 03:31:16;;;;;;;11.52;10.38;;;;;;;;;;5082969;28;20063;-58
2023/09/17 03:33:43;;;;;;;12.70;10.60;;;;;;;;;;5082815;28;20114;-58
2023/09/17 03:36:10;;;;;;;13.85;11.27;;;;;;;;;;5082797;28;20147;-59
2023/09/17 03:38:36;;;;;;;12.73;10.60;;;;;;;;;;5082085;28;20082;-58
2023/09/17 03:41:04;;;;;;;11.82;10.57;;;;;;;;;;5059891;28;20514;-55
2023/09/17 03:43:31;;;;;;;12.90;11.57;;;;;;;;;;5084569;28;20063;-57
2023/09/17 03:45:58;;;;;;;12.93;11.52;;;;;;;;;;5082408;28;20087;-58
2023/09/17 03:48:25;;;;;;;15.82;11.98;;;;;;;;;;5083154;28;20106;-58
2023/09/17 03:50:51;;;;;;;16.80;12.02;;;;;;;;;;5082054;28;20475;-58
2023/09/17 03:53:18;;;;;;;16.17;13.13;;;;;;;;;;5081915;28;20053;-58
2023/09/17 03:55:44;;;;;;;14.48;12.95;;;;;;;;;;5081772;28;20056;-55
2023/09/17 03:58:11;;;;;;;14.55;13.15;;;;;;;;;;5077132;28;20076;-58
2023/09/17 04:00:38;;;;;;;13.98;12.50;;;;;;;;;;5082556;28;20055;-58
2023/09/17 04:03:08;;;;;;;17.95;12.95;;;;;;;;;;5082411;28;20495;-57
2023/09/17 04:05:34;;;;;;;14.60;12.60;;;;;;;;;;5084113;28;20053;-56
2023/09/17 04:08:03;;;;;;;13.35;12.05;;;;;;;;;;5083207;28;20060;-56
2023/09/17 04:10:29;;;;;;;13.82;11.45;;;;;;;;;;5077292;28;20084;-56
2023/09/17 04:12:56;;;;;;;14.43;11.98;;;;;;;;;;5077345;28;20060;-54
2023/09/17 04:15:22;;;;;;;13.07;11.25;;;;;;;;;;5081870;28;20056;-58
2023/09/17 04:17:53;;;;;;;13.07;11.55;;;;;;;;;;5082609;28;20061;-58
2023/09/17 04:20:19;;;;;;;14.52;11.18;;;;;;;;;;5083375;28;20052;-58
2023/09/17 04:22:48;;;;;;;14.27;11.27;;;;;;;;;;5086147;28;20056;-57
2023/09/17 04:25:16;;;;;;;13.30;11.32;;;;;;;;;;5086192;28;20063;-57
2023/09/17 04:27:44;;;;;;;16.60;11.55;;;;;;;;;;5086672;28;20052;-57
2023/09/17 04:30:12;;;;;;;14.02;12.50;;;;;;;;;;5084829;28;20056;-58
2023/09/17 04:32:40;;;;;;;14.02;12.48;;;;;;;;;;5086252;28;20060;-56
2023/09/17 04:35:07;;;;;;;18.45;13.10;;;;;;;;;;5073228;28;20052;-57
2023/09/17 04:37:34;;;;;;;17.88;13.35;;;;;;;;;;5066135;28;20049;-58
2023/09/17 04:40:01;;;;;;;16.05;14.35;;;;;;;;;;5086479;28;20671;-56
2023/09/17 04:42:28;;;;;;;17.05;13.50;;;;;;;;;;5085486;28;20573;-59
2023/09/17 04:44:54;;;;;;;17.63;14.77;;;;;;;;;;5086476;28;20052;-59
2023/09/17 04:47:23;;;;;;;16.95;14.50;;;;;;;;;;5084068;28;20080;-57
2023/09/17 04:49:49;;;;;;;16.42;14.68;;;;;;;;;;5086833;28;20063;-58
2023/09/17 04:52:16;;;;;;;17.23;15.15;;;;;;;;;;5086277;28;20048;-57
2023/09/17 04:54:42;;;;;;;18.60;16.45;;;;;;;;;;5085807;28;20052;-57
2023/09/17 04:57:09;;;;;;;17.15;15.35;;;;;;;;;;5065925;28;20114;-59
2023/09/17 04:59:35;;;;;;;17.73;15.38;;;;;;;;;;5067371;28;20057;-58
2023/09/17 05:02:02;;;;;;;19.33;16.38;;;;;;;;;;5086901;28;20048;-58
2023/09/17 05:04:28;;;;;;;18.30;15.55;;;;;;;;;;5085598;28;20102;-57
2023/09/17 05:06:55;;;;;;;20.73;16.02;;;;;;;;;;5085813;28;20056;-58
2023/09/17 05:09:22;;;;;;;17.92;15.93;;;;;;;;;;5085417;28;20062;-60
2023/09/17 05:11:49;;;;;;;19.83;16.58;;;;;;;;;;5065612;28;20053;-58
2023/09/17 05:14:16;;;;;;;19.63;15.98;;;;;;;;;;5065517;28;20056;-59
2023/09/17 05:16:42;;;;;;;20.35;16.88;;;;;;;;;;5067106;28;20062;-60
2023/09/17 05:19:09;;;;;;;21.98;16.73;;;;;;;;;;5085649;28;20048;-59
2023/09/17 05:21:35;;;;;;;20.33;17.20;;;;;;;;;;5051471;28;20053;-56
2023/09/17 05:24:02;;;;;;;23.42;17.98;;;;;;;;;;5067560;28;20135;-58
2023/09/17 05:26:29;;;;;;;21.60;17.17;;;;;;;;;;5083643;28;20053;-58
2023/09/17 05:28:56;;;;;;;28.05;16.63;;;;;;;;;;5085828;28;20507;-55
2023/09/17 05:31:22;;;;;;;21.00;17.10;;;;;;;;;;5078444;28;20577;-57
2023/09/17 05:33:50;;;;;;;21.10;17.42;;;;;;;;;;5077853;28;20057;-59
2023/09/17 05:36:16;;;;;;;21.58;17.48;;;;;;;;;;5072612;28;20057;-59
2023/09/17 05:38:43;;;;;;;25.33;18.10;;;;;;;;;;5071953;28;20049;-56
2023/09/17 05:41:12;;;;;;;19.80;16.27;;;;;;;;;;5071337;28;20466;-58
2023/09/17 05:43:38;;;;;;;22.70;18.67;;;;;;;;;;5065169;28;20049;-56
2023/09/17 05:46:05;;;;;;;22.02;17.77;;;;;;;;;;5069717;28;20408;-57
2023/09/17 05:48:32;;;;;;;24.90;17.85;;;;;;;;;;5066851;28;20556;-57
2023/09/17 05:50:59;;;;;;;18.35;15.80;;;;;;;;;;5083151;28;20119;-57
2023/09/17 05:53:25;;;;;;;22.60;17.05;;;;;;;;;;5082155;28;20079;-56
2023/09/17 05:55:52;;;;;;;22.88;17.23;;;;;;;;;;5085025;28;20058;-55
2023/09/17 05:58:18;;;;;;;23.08;17.85;;;;;;;;;;5085131;28;20045;-58
2023/09/17 06:00:44;;;;;;;20.90;16.95;;;;;;;;;;5085013;28;20235;-57
2023/09/17 06:03:11;;;;;;;26.35;18.63;;;;;;;;;;5083947;28;20477;-55
2023/09/17 06:05:38;;;;;;;20.45;17.23;;;;;;;;;;5085754;28;20044;-57
2023/09/17 06:08:05;;;;;;;19.38;16.08;;;;;;;;;;5085741;28;20052;-53
2023/09/17 06:10:32;;;;;;;25.98;17.88;;;;;;;;;;5085486;28;20466;-58
2023/09/17 06:12:59;;;;;;;22.33;18.00;;;;;;;;;;5082846;28;20139;-57
2023/09/17 06:15:25;;;;;;;23.27;17.65;;;;;;;;;;5084776;28;20052;-52
2023/09/17 06:17:52;;;;;;;23.13;17.42;;;;;;;;;;5084527;28;20048;-55
2023/09/17 06:20:18;;;;;;;24.13;18.65;;;;;;;;;;5081673;28;20103;-55
2023/09/17 06:22:47;;;;;;;24.60;18.67;;;;;;;;;;5083274;28;20056;-58
2023/09/17 06:25:13;;;;;;;26.05;17.88;;;;;;;;;;5077636;28;20056;-55
2023/09/17 06:27:40;;;;;;;23.83;18.25;;;;;;;;;;5080920;28;20057;-52
2023/09/17 06:30:07;;;;;;;24.63;17.83;;;;;;;;;;5081660;28;20447;-53
2023/09/17 06:32:33;;;;;;;23.77;17.83;;;;;;;;;;5060789;28;20103;-56
2023/09/17 06:35:01;;;;;;;23.33;17.60;;;;;;;;;;5084954;28;20053;-54
2023/09/17 06:37:28;;;;;;;24.85;18.05;;;;;;;;;;5084143;28;20414;-58
2023/09/17 06:39:54;;;;;;;24.63;18.40;;;;;;;;;;5066120;28;20396;-57
2023/09/17 06:42:21;;;;;;;28.75;19.15;;;;;;;;;;5056429;28;21030;-58
2023/09/17 06:44:47;;;;;;;25.35;19.33;;;;;;;;;;5084308;28;20055;-55
2023/09/17 06:47:15;;;;;;;25.08;18.80;;;;;;;;;;5084439;28;20052;-57
2023/09/17 06:49:42;;;;;;;27.92;19.63;;;;;;;;;;5066333;28;20443;-56
2023/09/17 06:52:08;;;;;;;27.05;20.75;;;;;;;;;;5080574;28;20637;-59
2023/09/17 06:54:35;;;;;;;25.27;18.88;;;;;;;;;;5084592;28;20443;-56
2023/09/17 06:57:02;;;;;;;23.95;18.60;;;;;;;;;;5082506;28;20064;-57
2023/09/17 06:59:29;;;;;;;24.13;19.25;;;;;;;;;;5081447;28;20056;-54
2023/09/17 07:01:55;;;;;;;26.90;18.80;;;;;;;;;;5082583;28;20179;-58
2023/09/17 07:04:21;;;;;;;25.77;18.90;;;;;;;;;;5084012;28;20474;-57
2023/09/17 07:06:48;;;;;;;23.70;19.45;;;;;;;;;;5082833;28;20059;-53
2023/09/17 07:09:15;;;;;;;26.23;19.70;;;;;;;;;;5083883;28;20052;-57
2023/09/17 07:11:41;;;;;;;26.02;19.40;;;;;;;;;;5081178;28;20080;-57
2023/09/17 07:14:09;;;;;;;29.13;19.55;;;;;;;;;;5080231;28;20057;-58
2023/09/17 07:16:37;;;;;;;24.20;19.60;;;;;;;;;;5083915;28;20305;-56
2023/09/17 07:19:04;;;;;;;21.58;17.77;;;;;;;;;;5080575;28;20095;-58
2023/09/17 07:21:31;;;;;;;21.13;18.35;;;;;;;;;;5084693;28;20510;-58
2023/09/17 07:23:58;;;;;;;22.13;18.73;;;;;;;;;;5082735;28;20053;-55
2023/09/17 07:26:24;;;;;;;22.77;17.92;;;;;;;;;;5083585;28;20526;-57
2023/09/17 07:28:51;;;;;;;29.42;19.30;;;;;;;;;;5083930;28;20596;-56
2023/09/17 07:31:17;;;;;;;28.52;20.45;;;;;;;;;;5083441;28;20053;-58
2023/09/17 07:33:44;;;;;;;21.83;18.02;;;;;;;;;;5082998;28;20053;-55
2023/09/17 07:36:11;;;;;;;24.67;18.55;;;;;;;;;;5080381;28;20052;-57
2023/09/17 07:38:37;;;;;;;24.05;19.08;;;;;;;;;;5083641;28;20056;-59
2023/09/17 07:41:04;;;;;;;32.33;19.23;;;;;;;;;;5082713;28;20308;-56
2023/09/17 07:43:31;;;;;;;29.73;19.58;;;;;;;;;;5084161;28;20072;-59
2023/09/17 07:45:57;;;;;;;23.48;17.55;;;;;;;;;;5082623;28;20059;-57
2023/09/17 07:48:24;;;;;;;25.58;20.33;;;;;;;;;;5083496;28;20059;-58
2023/09/17 07:50:57;;;;;;;23.52;17.95;;;;;;;;;;5081216;28;20494;-57
2023/09/17 07:53:24;;;;;;;25.15;18.77;;;;;;;;;;5081671;28;20059;-58
2023/09/17 07:55:51;;;;;;;29.23;19.73;;;;;;;;;;5081454;28;20055;-58
2023/09/17 07:58:17;;;;;;;30.30;19.83;;;;;;;;;;5083281;28;20083;-58
2023/09/17 08:00:45;;;;;;;25.58;19.65;;;;;;;;;;5082331;28;20048;-55
2023/09/17 08:03:13;;;;;;;25.23;19.70;;;;;;;;;;5078593;28;20056;-57
2023/09/17 08:05:40;;;;;;;24.90;17.98;;;;;;;;;;5067857;28;20056;-58
2023/09/17 08:08:07;;;;;;;24.33;19.00;;;;;;;;;;5078647;28;20056;-44
2023/09/17 08:10:35;;;;;;;22.90;18.38;;;;;;;;;;5071105;28;20053;-57
2023/09/17 08:13:03;;;;;;;21.88;17.10;;;;;;;;;;5063280;28;20060;-57
2023/09/17 08:15:30;;;;;;;19.80;15.48;;;;;;;;;;5082787;28;20151;-57
2023/09/17 08:17:56;;;;;;;19.02;16.05;;;;;;;;;;5083111;28;20495;-53
2023/09/17 08:20:23;;;;;;;22.63;17.95;;;;;;;;;;5081883;28;20063;-58
2023/09/17 08:22:51;;;;;;;22.85;17.30;;;;;;;;;;5082605;28;20518;-58
2023/09/17 08:25:18;;;;;;;21.17;17.30;;;;;;;;;;5082291;28;20058;-58
2023/09/17 08:27:45;;;;;;;23.17;17.95;;;;;;;;;;5082878;28;20169;-55
2023/09/17 08:30:13;;;;;;;22.63;17.70;;;;;;;;;;5082911;28;20604;-57
2023/09/17 08:32:40;;;;;;;25.50;17.38;;;;;;;;;;5080379;28;20056;-59
2023/09/17 08:35:07;;;;;;;24.88;18.75;;;;;;;;;;5082636;28;20159;-58
2023/09/17 08:37:36;;;;;;;26.10;19.08;;;;;;;;;;5081963;28;20061;-59
2023/09/17 08:40:08;;;;;;;26.63;19.95;;;;;;;;;;5082682;28;20056;-57
2023/09/17 08:42:34;;;;;;;29.50;20.35;;;;;;;;;;5083581;28;20511;-59
2023/09/17 08:45:03;;;;;;;24.23;19.55;;;;;;;;;;5083088;28;20051;-58
2023/09/17 08:47:29;;;;;;;25.80;18.83;;;;;;;;;;5082934;28;20059;-58
2023/09/17 08:49:56;;;;;;;24.85;18.58;;;;;;;;;;5082731;28;20132;-56
2023/09/17 08:52:25;;;;;;;23.95;18.52;;;;;;;;;;5082363;28;20566;-56
2023/09/17 08:54:52;;;;;;;26.45;18.02;;;;;;;;;;5081178;28;20137;-57
2023/09/17 08:57:21;;;;;;;23.98;18.63;;;;;;;;;;5082716;28;20061;-57
2023/09/17 09:00:10;;;;;;;26.80;19.45;;;;;;;;;;5083104;28;20056;-56
2023/09/17 09:02:48;;;;;;;23.17;17.48;;;;;;;;;;5082822;28;20103;-56
2023/09/17 09:05:16;;;;;;;23.05;17.02;;;;;;;;;;5076752;28;20056;-58
2023/09/17 09:07:44;;;;;;;22.65;17.48;;;;;;;;;;5084614;28;20067;-58
2023/09/17 09:10:12;;;;;;;22.17;17.02;;;;;;;;;;5081678;28;20362;-55
2023/09/17 09:12:39;;;;;;;25.27;16.60;;;;;;;;;;5083873;28;20059;-56
2023/09/17 09:15:07;;;;;;;21.83;17.27;;;;;;;;;;5084285;28;20057;-57
2023/09/17 09:17:33;;;;;;;18.88;16.05;;;;;;;;;;5086463;28;20048;-58
2023/09/17 09:20:00;;;;;;;20.83;16.17;;;;;;;;;;5085880;28;20056;-58
2023/09/17 09:22:26;;;;;;;21.13;16.92;;;;;;;;;;5083510;28;20538;-57
2023/09/17 09:24:53;;;;;;;21.75;16.40;;;;;;;;;;5081139;28;20053;-58
2023/09/17 09:27:19;;;;;;;22.85;16.92;;;;;;;;;;5084711;28;20056;-56
2023/09/17 09:29:46;;;;;;;20.15;16.10;;;;;;;;;;5085906;28;20052;-58
2023/09/17 09:32:13;;;;;;;22.25;17.65;;;;;;;;;;5084307;28;20052;-58
2023/09/17 09:34:41;;;;;;;24.70;17.60;;;;;;;;;;5084116;28;20582;-58
2023/09/17 09:37:10;;;;;;;24.40;18.02;;;;;;;;;;5084386;28;20106;-58
2023/09/17 09:39:37;;;;;;;25.73;18.65;;;;;;;;;;5085335;28;20060;-58
2023/09/17 09:42:04;;;;;;;23.85;18.30;;;;;;;;;;5083576;28;20056;-57
2023/09/17 09:44:32;;;;;;;27.00;20.75;;;;;;;;;;5084089;28;20051;-58
2023/09/17 09:46:59;;;;;;;25.77;19.40;;;;;;;;;;5083380;28;20066;-54
2023/09/17 09:49:26;;;;;;;29.42;21.10;;;;;;;;;;5083535;28;20423;-58
2023/09/17 09:51:52;;;;;;;25.52;18.75;;;;;;;;;;5084607;28;20155;-59
2023/09/17 09:54:19;;;;;;;29.33;20.98;;;;;;;;;;5067192;28;20056;-58
2023/09/17 09:56:47;;;;;;;28.40;21.05;;;;;;;;;;5084029;28;20052;-56
2023/09/17 09:59:14;;;;;;;30.00;21.35;;;;;;;;;;5083381;28;20053;-58
2023/09/17 10:01:41;;;;;;;29.17;22.45;;;;;;;;;;5084455;28;20086;-56
2023/09/17 10:04:08;;;;;;;37.15;22.58;;;;;;;;;;5083192;28;20056;-57
2023/09/17 10:06:36;;;;;;;31.85;21.48;;;;;;;;;;5083970;28;21803;-58
2023/09/17 10:09:03;;;;;;;30.90;23.00;;;;;;;;;;5085227;28;20567;-56
2023/09/17 10:11:30;;;;;;;31.45;22.85;;;;;;;;;;5085110;28;20226;-57
2023/09/17 10:14:04;;;;;;;33.33;23.25;;;;;;;;;;5083407;28;20052;-55
2023/09/17 10:16:32;;;;;;;33.67;23.75;;;;;;;;;;5085519;28;20396;-57
2023/09/17 10:18:59;;;;;;;36.20;23.60;;;;;;;;;;5079269;28;20086;-57
2023/09/17 10:21:26;;;;;;;32.13;23.08;;;;;;;;;;5084146;28;20177;-54
2023/09/17 10:23:57;;;;;;;33.92;23.52;;;;;;;;;;5084240;28;20131;-54
2023/09/17 10:26:24;;;;;;;33.13;23.48;;;;;;;;;;5082465;28;20053;-57
2023/09/17 10:28:51;;;;;;;29.08;22.48;;;;;;;;;;5084477;28;20053;-57
2023/09/17 10:31:19;;;;;;;33.10;23.58;;;;;;;;;;5084127;28;20139;-58
2023/09/17 10:33:46;;;;;;;33.95;23.77;;;;;;;;;;5080800;28;20561;-58
2023/09/17 10:36:13;;;;;;;36.58;24.42;;;;;;;;;;5072579;28;20609;-58
2023/09/17 10:38:42;;;;;;;34.90;25.15;;;;;;;;;;5065492;28;20063;-55
2023/09/17 10:41:10;;;;;;;34.28;24.00;;;;;;;;;;5084682;28;20059;-59
2023/09/17 10:43:37;;;;;;;37.67;25.00;;;;;;;;;;5084692;28;20531;-58
2023/09/17 10:46:05;;;;;;;33.42;24.75;;;;;;;;;;5067157;28;20114;-59
2023/09/17 10:48:33;;;;;;;42.40;26.25;;;;;;;;;;5058205;28;20568;-58
2023/09/17 10:51:00;;;;;;;44.72;26.33;;;;;;;;;;5083589;28;20064;-59
2023/09/17 10:53:27;;;;;;;35.25;26.23;;;;;;;;;;5083275;28;20174;-58
2023/09/17 10:56:03;;;;;;;35.85;25.77;;;;;;;;;;5083766;28;20877;-58
2023/09/17 10:58:36;;;;;;;35.80;25.23;;;;;;;;;;5082895;28;20541;-59
2023/09/17 11:01:04;;;;;;;37.53;26.48;;;;;;;;;;5065276;28;20052;-59
2023/09/17 11:03:33;;;;;;;36.97;25.65;;;;;;;;;;5084221;28;20449;-58
2023/09/17 11:06:01;;;;;;;39.40;26.63;;;;;;;;;;5083974;28;20110;-57
2023/09/17 11:08:29;;;;;;;37.83;27.25;;;;;;;;;;5082665;28;20147;-57
2023/09/17 11:10:55;;;;;;;39.90;27.40;;;;;;;;;;5083070;28;20106;-57
2023/09/17 11:13:23;;;;;;;42.65;27.73;;;;;;;;;;5081085;28;20084;-57
2023/09/17 11:15:54;;;;;;;41.20;27.88;;;;;;;;;;5083437;28;20143;-56
2023/09/17 11:18:20;;;;;;;38.17;28.10;;;;;;;;;;5080868;28;20058;-57
2023/09/17 11:20:56;;;;;;;44.03;29.20;;;;;;;;;;5082359;28;20511;-57
2023/09/17 11:23:41;;;;;;;37.42;27.92;;;;;;;;;;5083845;28;20090;-58
2023/09/17 11:26:08;;;;;;;41.97;29.65;;;;;;;;;;5082662;28;20053;-57
2023/09/17 11:28:36;;;;;;;43.15;29.25;;;;;;;;;;5066142;28;20076;-58
2023/09/17 11:31:03;;;;;;;43.55;30.05;;;;;;;;;;5081759;28;20048;-57
2023/09/17 11:33:32;;;;;;;51.20;33.20;;;;;;;;;;5083900;28;20059;-59
2023/09/17 11:35:59;;;;;;;47.00;30.70;;;;;;;;;;5079444;28;20056;-58
2023/09/17 11:38:26;;;;;;;59.80;33.55;;;;;;;;;;5078884;28;20057;-57
2023/09/17 11:41:12;;;;;;;48.05;30.95;;;;;;;;;;5083143;28;20492;-57
2023/09/17 11:43:42;;;;;;;51.30;33.63;;;;;;;;;;5082465;28;20076;-57
2023/09/17 11:46:10;;;;;;;56.30;34.40;;;;;;;;;;5083045;28;20078;-55
2023/09/17 11:48:36;;;;;;;59.67;36.40;;;;;;;;;;5082797;28;20063;-56
2023/09/17 11:51:16;;;;;;;57.65;34.05;;;;;;;;;;5083480;28;20048;-58
2023/09/17 11:53:49;;;;;;;54.33;35.75;;;;;;;;;;5083368;28;20052;-58
2023/09/17 11:56:16;;;;;;;67.55;37.58;;;;;;;;;;5083750;28;20064;-57
2023/09/17 11:58:43;;;;;;;65.63;38.45;;;;;;;;;;5083299;28;20052;-58
2023/09/17 12:01:09;;;;;;;65.82;35.97;;;;;;;;;;5082562;28;20091;-59
2023/09/17 12:03:36;;;;;;;69.80;36.67;;;;;;;;;;5082412;28;20052;-56
2023/09/17 12:06:04;;;;;;;66.30;38.05;;;;;;;;;;5083711;28;20059;-59
2023/09/17 12:08:31;;;;;;;62.60;37.50;;;;;;;;;;5084090;28;20049;-58
2023/09/17 12:11:03;;;;;;;55.92;37.28;;;;;;;;;;5083191;28;20515;-56
2023/09/17 12:13:30;;;;;;;71.13;39.70;;;;;;;;;;5083994;28;20557;-59
2023/09/17 12:15:57;;;;;;;63.20;37.80;;;;;;;;;;5083256;28;20551;-59
2023/09/17 12:18:24;;;;;;;68.50;39.13;;;;;;;;;;5082336;28;20118;-58
2023/09/17 12:20:56;;;;;;;65.40;37.05;;;;;;;;;;5082912;28;20131;-58
2023/09/17 12:23:41;;;;;;;62.88;37.10;;;;;;;;;;5064924;28;20862;-55
2023/09/17 12:26:07;;;;;;;69.85;40.45;;;;;;;;;;5082914;28;20457;-58
2023/09/17 12:28:33;;;;;;;70.30;39.38;;;;;;;;;;5082948;28;20517;-56
2023/09/17 12:31:02;;;;;;;67.55;37.70;;;;;;;;;;5082794;28;20056;-57
2023/09/17 12:33:28;;;;;;;63.55;37.50;;;;;;;;;;5082950;28;20495;-57
2023/09/17 12:35:56;;;;;;;62.42;38.00;;;;;;;;;;5063068;28;20557;-58
2023/09/17 12:38:22;;;;;;;60.15;34.00;;;;;;;;;;5044743;28;20064;-60
2023/09/17 12:40:50;;;;;;;57.90;35.58;;;;;;;;;;5062810;28;20583;-60
2023/09/17 12:43:17;;;;;;;63.97;36.45;;;;;;;;;;5065708;28;20423;-58
2023/09/17 12:45:44;;;;;;;69.28;38.00;;;;;;;;;;5065897;28;20462;-58
2023/09/17 12:48:10;;;;;;;67.70;37.75;;;;;;;;;;5065790;28;20057;-58
2023/09/17 12:50:38;;;;;;;61.55;35.47;;;;;;;;;;5084833;28;20567;-58
2023/09/17 12:53:05;;;;;;;71.63;36.97;;;;;;;;;;5085902;28;20056;-59
2023/09/17 12:55:31;;;;;;;68.60;36.10;;;;;;;;;;5087030;28;20147;-57
2023/09/17 12:57:58;;;;;;;71.88;38.55;;;;;;;;;;5085153;28;20048;-59
2023/09/17 13:00:24;;;;;;;64.78;37.70;;;;;;;;;;5085572;28;20566;-58
2023/09/17 13:02:53;;;;;;;67.72;36.80;;;;;;;;;;5085458;28;20408;-58
2023/09/17 13:05:21;;;;;;;62.17;35.28;;;;;;;;;;5085180;28;20102;-60
2023/09/17 13:07:47;;;;;;;67.80;38.25;;;;;;;;;;5085372;28;20238;-58
2023/09/17 13:10:18;;;;;;;68.43;36.70;;;;;;;;;;5085958;28;20071;-60
2023/09/17 13:12:45;;;;;;;75.22;38.88;;;;;;;;;;5086193;28;20061;-59
2023/09/17 13:15:11;;;;;;;67.63;35.08;;;;;;;;;;5085783;28;20476;-58
2023/09/17 13:17:38;;;;;;;63.72;35.08;;;;;;;;;;5085870;28;20048;-57
2023/09/17 13:20:05;;;;;;;71.82;34.30;;;;;;;;;;5085720;28;20056;-58
2023/09/17 13:22:33;;;;;;;64.50;34.85;;;;;;;;;;5069818;28;20057;-59
2023/09/17 13:25:00;;;;;;;66.80;34.92;;;;;;;;;;5084918;28;20060;-56
2023/09/17 13:27:29;;;;;;;78.90;36.85;;;;;;;;;;5084196;28;20059;-57
2023/09/17 13:29:56;;;;;;;62.90;34.58;;;;;;;;;;5084308;28;20045;-56
2023/09/17 13:32:22;;;;;;;72.30;35.45;;;;;;;;;;5085822;28;20064;-58
2023/09/17 13:34:49;;;;;;;61.35;33.65;;;;;;;;;;5083932;28;20521;-59
2023/09/17 13:37:16;;;;;;;64.65;34.80;;;;;;;;;;5084999;28;20049;-58
2023/09/17 13:39:44;;;;;;;64.35;34.92;;;;;;;;;;5084100;28;20067;-58
2023/09/17 13:42:10;;;;;;;57.55;33.38;;;;;;;;;;5065407;28;20499;-59
2023/09/17 13:44:37;;;;;;;72.80;33.97;;;;;;;;;;5066502;28;20487;-58
2023/09/17 13:47:08;;;;;;;60.45;33.58;;;;;;;;;;5084864;28;20059;-59
2023/09/17 13:49:35;;;;;;;63.83;33.15;;;;;;;;;;5083918;28;20048;-59
2023/09/17 13:52:01;;;;;;;61.58;32.20;;;;;;;;;;5085753;28;20060;-57
2023/09/17 13:54:28;;;;;;;56.70;29.08;;;;;;;;;;5081694;28;20056;-59
2023/09/17 13:56:54;;;;;;;52.17;29.85;;;;;;;;;;5082757;28;20523;-59
2023/09/17 13:59:21;;;;;;;58.15;29.48;;;;;;;;;;5082926;28;20503;-57
2023/09/17 14:01:47;;;;;;;51.60;29.35;;;;;;;;;;5063440;28;20057;-59
2023/09/17 14:04:14;;;;;;;51.47;29.80;;;;;;;;;;5065779;28;20056;-58
2023/09/17 14:06:41;;;;;;;53.58;28.45;;;;;;;;;;5085007;28;20053;-56
2023/09/17 14:09:07;;;;;;;47.63;28.63;;;;;;;;;;5083985;28;20052;-56
2023/09/17 14:11:35;;;;;;;48.63;28.90;;;;;;;;;;5083036;28;20090;-58
2023/09/17 14:14:03;;;;;;;53.97;29.15;;;;;;;;;;5084487;28;20056;-56
2023/09/17 14:16:30;;;;;;;47.67;28.63;;;;;;;;;;5082843;28;20053;-57
2023/09/17 14:18:57;;;;;;;55.55;30.13;;;;;;;;;;5084867;28;20404;-57
2023/09/17 14:21:23;;;;;;;53.65;29.05;;;;;;;;;;5084209;28;20667;-59